Time;durP1;ratioP1;P1;durP2;ratioP2;P2;SDS_P1;SDS_P2;PMS_P1;PMS_P2;Temp;Humidity;BMP_temperature;BMP_pressure;BME280_temperature;BME280_humidity;BME280_pressure;Samples;Min_cycle;Max_cycle;Signal;HPM_P1;HPM_P2
2023/10/26 00:00:25;;;;;;;12.05;2.55;;;20.40;88.70;;;;;;6244292;23;20361;-76
2023/10/26 00:02:51;;;;;;;11.60;2.63;;;20.40;88.90;;;;;;6217035;23;20355;-75
2023/10/26 00:05:17;;;;;;;14.77;2.72;;;20.30;89.00;;;;;;6244105;23;20003;-75
2023/10/26 00:07:43;;;;;;;10.95;2.13;;;20.30;89.10;;;;;;6243893;23;20000;-76
2023/10/26 00:10:09;;;;;;;11.65;2.35;;;20.30;89.40;;;;;;6246107;22;20310;-88
2023/10/26 00:12:35;;;;;;;10.18;2.35;;;20.20;89.90;;;;;;6264856;22;20008;-89
2023/10/26 00:15:02;;;;;;;16.48;2.33;;;20.20;89.60;;;;;;6253218;23;20021;-88
2023/10/26 00:17:28;;;;;;;12.55;2.85;;;20.20;89.70;;;;;;6251995;23;20001;-89
2023/10/26 00:19:54;;;;;;;8.95;2.53;;;20.20;90.00;;;;;;6254676;23;20126;-87
2023/10/26 00:22:23;;;;;;;10.15;2.58;;;20.20;90.10;;;;;;6254075;23;20016;-88
2023/10/26 00:24:50;;;;;;;10.77;2.92;;;20.20;90.30;;;;;;6270320;22;20000;-88
2023/10/26 00:27:16;;;;;;;10.27;2.25;;;20.20;90.20;;;;;;6261723;23;20330;-90
2023/10/26 00:29:42;;;;;;;14.35;2.55;;;20.20;90.20;;;;;;6248757;23;19996;-90
2023/10/26 00:32:08;;;;;;;11.07;2.80;;;20.30;90.10;;;;;;6257442;23;20047;-88
2023/10/26 00:34:34;;;;;;;11.18;2.38;;;20.30;90.20;;;;;;6252217;23;20000;-90
2023/10/26 00:37:00;;;;;;;11.95;2.92;;;20.30;90.10;;;;;;6259446;23;20002;-87
2023/10/26 00:39:26;;;;;;;14.05;3.30;;;20.30;90.20;;;;;;6265818;23;20000;-86
2023/10/26 00:41:53;;;;;;;11.63;2.60;;;20.30;90.30;;;;;;6222100;23;20457;-87
2023/10/26 00:44:20;;;;;;;10.85;3.35;;;20.30;90.40;;;;;;6250739;23;20049;-88
2023/10/26 00:46:47;;;;;;;10.57;2.42;;;20.30;90.30;;;;;;6248039;23;20007;-88
2023/10/26 00:49:15;;;;;;;10.05;2.88;;;20.30;90.40;;;;;;6256017;23;20028;-89
2023/10/26 00:51:46;;;;;;;18.95;3.47;;;20.30;90.50;;;;;;6248122;23;19996;-89
2023/10/26 00:54:13;;;;;;;14.68;3.20;;;20.30;90.60;;;;;;6248578;23;20058;-88
2023/10/26 00:56:39;;;;;;;11.27;2.70;;;20.30;90.60;;;;;;6229470;23;20012;-90
2023/10/26 00:59:05;;;;;;;12.30;2.20;;;20.20;90.60;;;;;;6262830;23;20373;-88
2023/10/26 01:01:31;;;;;;;9.60;1.88;;;20.20;90.70;;;;;;6257270;23;20000;-88
2023/10/26 01:03:58;;;;;;;10.55;2.13;;;20.10;90.70;;;;;;6252910;23;20057;-90
2023/10/26 01:06:23;;;;;;;9.43;2.30;;;20.10;90.90;;;;;;6252562;23;19996;-89
2023/10/26 01:08:49;;;;;;;8.57;2.53;;;20.00;91.00;;;;;;6252236;23;20011;-89
2023/10/26 01:11:16;;;;;;;10.90;2.67;;;20.00;91.20;;;;;;6253849;23;20103;-88
2023/10/26 01:13:42;;;;;;;8.98;1.92;;;19.90;91.20;;;;;;6258348;23;20005;-87
2023/10/26 01:16:09;;;;;;;10.18;2.33;;;19.90;91.20;;;;;;6253867;23;19996;-88
2023/10/26 01:18:34;;;;;;;10.10;2.22;;;19.90;91.30;;;;;;6252636;23;20031;-89
2023/10/26 01:21:00;;;;;;;11.40;2.50;;;19.90;91.20;;;;;;6255930;23;19996;-89
2023/10/26 01:23:26;;;;;;;16.95;2.75;;;19.90;91.30;;;;;;6235288;23;20028;-88
2023/10/26 01:25:55;;;;;;;9.88;1.90;;;19.80;91.40;;;;;;6237809;23;20004;-89
2023/10/26 01:28:23;;;;;;;10.15;2.78;;;19.80;91.20;;;;;;6263607;23;20004;-89
2023/10/26 01:30:48;;;;;;;9.48;2.05;;;19.80;91.30;;;;;;6227099;23;20019;-87
2023/10/26 01:33:14;;;;;;;13.55;2.13;;;19.80;91.40;;;;;;6253431;23;20334;-90
2023/10/26 01:35:45;;;;;;;14.38;2.83;;;19.70;91.40;;;;;;6230946;23;20015;-90
2023/10/26 01:38:11;;;;;;;15.35;2.63;;;19.70;91.60;;;;;;6243262;23;19995;-88
2023/10/26 01:40:37;;;;;;;16.63;2.58;;;19.60;91.60;;;;;;6265206;23;20024;-90
2023/10/26 01:43:03;;;;;;;15.75;2.58;;;19.60;91.70;;;;;;6266969;23;20059;-92
2023/10/26 01:45:29;;;;;;;14.85;2.90;;;19.50;91.90;;;;;;6266926;23;20043;-90
2023/10/26 01:47:55;;;;;;;12.48;2.72;;;19.50;91.90;;;;;;6231482;23;20022;-89
2023/10/26 01:50:21;;;;;;;13.90;2.67;;;19.50;92.00;;;;;;6256746;23;20074;-90
2023/10/26 01:52:46;;;;;;;13.23;2.55;;;19.50;92.10;;;;;;6260854;23;20011;-91
2023/10/26 01:55:12;;;;;;;12.68;2.80;;;19.50;92.10;;;;;;6269044;23;19992;-91
2023/10/26 01:57:38;;;;;;;10.25;2.38;;;19.50;92.10;;;;;;6260247;22;19992;-89
2023/10/26 02:00:04;;;;;;;13.98;3.25;;;19.50;92.10;;;;;;6257258;23;20008;-89
2023/10/26 02:02:30;;;;;;;11.40;2.38;;;19.50;92.20;;;;;;6255467;23;20088;-90
2023/10/26 02:04:56;;;;;;;11.40;2.15;;;19.50;92.20;;;;;;6258520;23;19996;-89
2023/10/26 02:07:21;;;;;;;17.15;2.90;;;19.50;92.20;;;;;;6260699;23;20007;-90
2023/10/26 02:09:47;;;;;;;13.95;3.45;;;19.50;92.20;;;;;;6259291;23;20419;-86
2023/10/26 02:12:13;;;;;;;16.95;3.30;;;19.50;92.30;;;;;;6262569;23;20349;-91
2023/10/26 02:14:38;;;;;;;16.20;3.30;;;19.50;92.30;;;;;;6264697;23;20079;-89
2023/10/26 02:17:05;;;;;;;13.07;2.90;;;19.40;92.40;;;;;;6266755;23;20030;-90
2023/10/26 02:19:31;;;;;;;15.00;3.67;;;19.40;92.50;;;;;;6233184;23;20031;-90
2023/10/26 02:21:56;;;;;;;18.98;4.50;;;19.40;92.60;;;;;;6258200;23;20012;-90
2023/10/26 02:24:22;;;;;;;12.85;4.03;;;19.40;92.70;;;;;;6258215;23;20007;-89
2023/10/26 02:26:48;;;;;;;14.68;3.70;;;19.40;92.70;;;;;;6258220;23;20434;-89
2023/10/26 02:29:14;;;;;;;16.83;4.10;;;19.40;92.80;;;;;;6256411;23;20007;-89
2023/10/26 02:31:39;;;;;;;14.20;3.33;;;19.30;92.70;;;;;;6258265;23;20067;-90
2023/10/26 02:34:05;;;;;;;14.95;3.65;;;19.30;92.80;;;;;;6255584;23;20476;-89
2023/10/26 02:36:31;;;;;;;12.45;3.15;;;19.30;92.90;;;;;;6234289;23;20008;-88
2023/10/26 02:38:56;;;;;;;12.75;3.17;;;19.20;92.90;;;;;;6249268;23;20373;-90
2023/10/26 02:41:22;;;;;;;17.17;2.95;;;19.20;93.10;;;;;;6249483;23;20071;-89
2023/10/26 02:43:48;;;;;;;14.15;3.47;;;19.20;93.10;;;;;;6253571;23;20288;-89
2023/10/26 02:46:13;;;;;;;12.98;3.10;;;19.20;93.10;;;;;;6256374;23;20003;-89
2023/10/26 02:48:39;;;;;;;11.77;2.90;;;19.20;93.20;;;;;;6251281;23;20004;-89
2023/10/26 02:51:05;;;;;;;16.00;3.42;;;19.20;93.10;;;;;;6256693;23;20003;-89
2023/10/26 02:53:31;;;;;;;19.90;3.30;;;19.20;93.10;;;;;;6255157;23;20489;-90
2023/10/26 02:55:57;;;;;;;12.40;2.60;;;19.20;93.20;;;;;;6228606;23;20422;-90
2023/10/26 02:58:23;;;;;;;11.55;2.70;;;19.10;93.20;;;;;;6255122;23;20036;-90
2023/10/26 03:00:48;;;;;;;13.38;3.05;;;19.10;93.30;;;;;;6229243;23;20058;-90
2023/10/26 03:03:14;;;;;;;13.35;2.95;;;19.10;93.40;;;;;;6254224;23;20008;-90
2023/10/26 03:05:40;;;;;;;17.10;3.15;;;19.10;93.40;;;;;;6252059;23;20023;-89
2023/10/26 03:08:06;;;;;;;9.93;2.58;;;19.10;93.40;;;;;;6232291;23;20008;-90
2023/10/26 03:10:31;;;;;;;14.73;3.13;;;19.00;93.30;;;;;;6262244;23;20020;-91
2023/10/26 03:12:57;;;;;;;16.83;3.03;;;19.00;93.40;;;;;;6262417;23;20000;-89
2023/10/26 03:15:23;;;;;;;14.65;2.90;;;19.00;93.60;;;;;;6239457;23;20011;-89
2023/10/26 03:17:49;;;;;;;14.48;3.30;;;19.00;93.50;;;;;;6256614;23;20000;-90
2023/10/26 03:20:15;;;;;;;12.63;2.40;;;19.10;93.60;;;;;;6259210;23;20063;-90
2023/10/26 03:22:41;;;;;;;9.15;2.13;;;19.10;93.90;;;;;;6255566;23;20453;-90
2023/10/26 03:25:07;;;;;;;11.70;3.00;;;19.00;93.60;;;;;;6252199;23;20066;-90
2023/10/26 03:27:33;;;;;;;13.45;3.72;;;19.10;93.60;;;;;;6253915;23;20334;-89
2023/10/26 03:29:59;;;;;;;19.35;2.40;;;19.10;93.70;;;;;;6247644;23;20004;-89
2023/10/26 03:32:24;;;;;;;15.57;2.67;;;19.10;93.60;;;;;;6248862;23;20071;-90
2023/10/26 03:34:50;;;;;;;8.13;2.20;;;19.00;93.60;;;;;;6251045;23;20026;-90
2023/10/26 03:37:16;;;;;;;15.43;3.10;;;19.10;93.70;;;;;;6229178;23;20083;-89
2023/10/26 03:39:42;;;;;;;11.60;3.67;;;19.10;93.90;;;;;;6255182;23;20008;-90
2023/10/26 03:42:08;;;;;;;12.07;2.67;;;19.10;93.50;;;;;;6263887;23;20063;-89
2023/10/26 03:44:33;;;;;;;15.52;2.95;;;19.10;93.50;;;;;;6263278;23;19996;-90
2023/10/26 03:46:59;;;;;;;11.68;2.40;;;19.10;93.60;;;;;;6253530;23;20007;-90
2023/10/26 03:49:25;;;;;;;15.30;2.28;;;19.20;93.60;;;;;;6249664;23;20044;-90
2023/10/26 03:51:50;;;;;;;10.60;2.53;;;19.20;93.60;;;;;;6248739;23;20026;-91
2023/10/26 03:54:16;;;;;;;15.02;3.08;;;19.20;93.60;;;;;;6258138;23;20000;-91
2023/10/26 03:56:42;;;;;;;15.27;2.95;;;19.20;93.50;;;;;;6265266;23;19996;-91
2023/10/26 03:59:08;;;;;;;15.65;2.95;;;19.20;93.50;;;;;;6228721;23;20023;-89
2023/10/26 04:01:35;;;;;;;12.73;3.50;;;19.20;93.50;;;;;;6250472;23;20307;-90
2023/10/26 04:04:02;;;;;;;20.98;3.22;;;19.20;93.50;;;;;;6228032;23;20012;-86
2023/10/26 04:06:30;;;;;;;12.57;2.95;;;19.20;93.50;;;;;;6264327;23;20056;-86
2023/10/26 04:08:56;;;;;;;13.45;3.00;;;19.20;93.40;;;;;;6261948;23;20399;-90
2023/10/26 04:11:23;;;;;;;15.27;3.13;;;19.20;93.50;;;;;;6229060;23;20071;-90
2023/10/26 04:13:48;;;;;;;19.63;2.95;;;19.20;93.50;;;;;;6255789;23;20079;-90
2023/10/26 04:16:15;;;;;;;13.02;2.55;;;19.20;93.60;;;;;;6249676;23;20007;-90
2023/10/26 04:18:41;;;;;;;13.73;3.00;;;19.20;93.60;;;;;;6251306;23;20007;-89
2023/10/26 04:21:06;;;;;;;15.48;2.95;;;19.20;93.60;;;;;;6250396;23;20067;-91
2023/10/26 04:23:32;;;;;;;9.23;2.45;;;19.20;93.50;;;;;;6249567;23;20012;-91
2023/10/26 04:25:58;;;;;;;11.00;2.60;;;19.20;93.50;;;;;;6253668;23;20000;-92
2023/10/26 04:28:24;;;;;;;12.32;3.25;;;19.20;93.50;;;;;;6256159;23;20000;-91
2023/10/26 04:30:50;;;;;;;17.25;2.97;;;19.20;93.60;;;;;;6267342;23;20007;-88
2023/10/26 04:33:17;;;;;;;15.23;3.42;;;19.10;93.60;;;;;;6262272;23;20015;-91
2023/10/26 04:35:43;;;;;;;18.90;3.15;;;19.10;93.70;;;;;;6257888;23;20023;-91
2023/10/26 04:38:09;;;;;;;17.83;3.70;;;19.10;93.80;;;;;;6255466;23;20000;-92
2023/10/26 04:40:40;;;;;;;14.63;2.60;;;19.10;93.80;;;;;;6227213;23;20011;-90
2023/10/26 04:43:06;;;;;;;14.18;2.92;;;19.10;93.90;;;;;;6259239;23;20035;-91
2023/10/26 04:45:32;;;;;;;14.90;2.90;;;19.00;93.80;;;;;;6260101;23;20326;-90
2023/10/26 04:48:01;;;;;;;19.73;3.63;;;19.00;93.80;;;;;;6257607;23;20406;-90
2023/10/26 04:50:27;;;;;;;14.18;2.90;;;19.00;93.80;;;;;;6254582;23;20015;-90
2023/10/26 04:52:53;;;;;;;18.90;3.40;;;19.00;93.80;;;;;;6266395;23;20004;-92
2023/10/26 04:55:19;;;;;;;23.08;4.40;;;19.00;93.80;;;;;;6264249;23;20309;-93
2023/10/26 04:57:45;;;;;;;15.32;3.28;;;19.00;93.80;;;;;;6260411;23;20004;-93
2023/10/26 05:00:11;;;;;;;17.48;3.65;;;19.00;93.90;;;;;;6257005;23;20082;-92
2023/10/26 05:02:38;;;;;;;21.15;3.20;;;19.00;93.90;;;;;;6259368;23;20035;-90
2023/10/26 05:05:04;;;;;;;13.27;3.35;;;19.00;93.90;;;;;;6258760;23;20051;-91
2023/10/26 05:07:30;;;;;;;13.20;2.83;;;19.00;93.90;;;;;;6258371;23;20007;-92
2023/10/26 05:09:57;;;;;;;15.45;3.47;;;19.00;93.90;;;;;;6258361;23;19996;-91
2023/10/26 05:12:23;;;;;;;18.90;3.38;;;19.00;94.00;;;;;;6235434;23;20015;-91
2023/10/26 05:14:49;;;;;;;14.65;3.45;;;19.00;93.90;;;;;;6234782;23;20009;-92
2023/10/26 05:17:14;;;;;;;17.77;3.30;;;19.00;94.00;;;;;;6258435;23;20064;-90
2023/10/26 05:19:40;;;;;;;16.80;3.20;;;19.00;94.00;;;;;;6260516;23;19997;-92
2023/10/26 05:22:06;;;;;;;13.55;3.88;;;18.90;94.00;;;;;;6263548;23;20012;-90
2023/10/26 05:24:32;;;;;;;17.77;4.70;;;18.90;94.00;;;;;;6264931;23;20056;-93
2023/10/26 05:26:58;;;;;;;13.68;3.53;;;18.90;94.00;;;;;;6250552;23;20008;-84
2023/10/26 05:29:24;;;;;;;13.52;2.90;;;18.90;94.20;;;;;;6244749;23;20000;-85
2023/10/26 05:31:50;;;;;;;15.90;2.97;;;18.90;94.20;;;;;;6219607;23;20004;-76
2023/10/26 05:34:15;;;;;;;15.02;3.25;;;18.90;94.20;;;;;;6246187;23;20497;-80
2023/10/26 05:36:41;;;;;;;19.48;3.90;;;18.90;94.30;;;;;;6245431;23;20011;-84
2023/10/26 05:39:07;;;;;;;18.30;4.50;;;18.90;94.30;;;;;;6245279;23;20430;-76
2023/10/26 05:41:33;;;;;;;17.10;3.85;;;18.90;94.40;;;;;;6244960;23;20015;-75
2023/10/26 05:43:59;;;;;;;16.08;3.15;;;18.90;94.40;;;;;;6245057;23;20015;-77
2023/10/26 05:46:25;;;;;;;20.45;4.47;;;18.90;94.40;;;;;;6244814;23;19996;-75
2023/10/26 05:48:50;;;;;;;19.08;4.30;;;18.80;94.40;;;;;;6244892;23;20004;-76
2023/10/26 05:51:16;;;;;;;20.77;4.82;;;18.90;94.50;;;;;;6244928;23;20438;-78
2023/10/26 05:53:42;;;;;;;12.75;4.00;;;18.90;94.50;;;;;;6245170;23;20007;-77
2023/10/26 05:56:08;;;;;;;14.90;4.32;;;18.90;94.50;;;;;;6245405;23;20307;-76
2023/10/26 05:58:34;;;;;;;12.82;4.13;;;18.90;94.50;;;;;;6245125;23;20026;-77
2023/10/26 06:01:00;;;;;;;18.35;4.03;;;18.90;94.40;;;;;;6245331;23;20473;-77
2023/10/26 06:03:26;;;;;;;13.77;3.97;;;18.90;94.40;;;;;;6244932;23;20023;-79
2023/10/26 06:05:58;;;;;;;20.23;4.40;;;18.80;94.40;;;;;;6245294;23;20003;-78
2023/10/26 06:08:24;;;;;;;15.90;4.60;;;18.80;94.50;;;;;;6244845;23;20050;-78
2023/10/26 06:10:49;;;;;;;16.50;4.10;;;18.80;94.50;;;;;;6244903;23;20388;-78
2023/10/26 06:13:15;;;;;;;14.95;4.25;;;18.80;94.50;;;;;;6245000;23;20030;-79
2023/10/26 06:15:41;;;;;;;18.20;4.00;;;18.90;94.60;;;;;;6245745;23;20023;-78
2023/10/26 06:18:06;;;;;;;24.52;4.50;;;18.90;94.50;;;;;;6245408;23;20031;-79
2023/10/26 06:20:32;;;;;;;16.38;4.38;;;18.90;94.40;;;;;;6244668;23;20529;-78
2023/10/26 06:22:58;;;;;;;18.27;4.75;;;19.00;94.30;;;;;;6244636;23;20012;-78
2023/10/26 06:25:25;;;;;;;17.10;4.70;;;19.00;94.30;;;;;;6244117;23;20063;-77
2023/10/26 06:27:51;;;;;;;14.13;4.43;;;19.00;94.30;;;;;;6244174;23;20343;-76
2023/10/26 06:30:17;;;;;;;13.70;4.30;;;19.00;94.30;;;;;;6244376;23;19996;-77
2023/10/26 06:32:42;;;;;;;21.98;5.18;;;19.10;94.30;;;;;;6244091;23;20000;-76
2023/10/26 06:35:10;;;;;;;17.83;4.88;;;19.10;94.10;;;;;;6244626;23;20067;-78
2023/10/26 06:37:37;;;;;;;16.45;4.47;;;19.20;94.10;;;;;;6245499;23;20054;-76
2023/10/26 06:40:06;;;;;;;16.33;4.53;;;19.30;94.00;;;;;;6245321;23;20450;-78
2023/10/26 06:42:33;;;;;;;17.65;4.25;;;19.40;93.90;;;;;;6244163;23;20034;-80
2023/10/26 06:44:58;;;;;;;18.80;5.55;;;19.50;93.70;;;;;;6246887;23;20000;-74
2023/10/26 06:47:24;;;;;;;11.55;4.35;;;19.60;93.60;;;;;;6244389;23;20406;-72
2023/10/26 06:49:50;;;;;;;21.67;5.05;;;19.60;93.50;;;;;;6244101;23;20094;-70
2023/10/26 06:52:15;;;;;;;21.08;5.63;;;19.70;93.50;;;;;;6244215;23;20004;-70
2023/10/26 06:54:41;;;;;;;14.65;4.90;;;19.80;93.30;;;;;;6244636;23;20063;-69
2023/10/26 06:57:07;;;;;;;15.18;4.45;;;19.80;93.30;;;;;;6245110;23;20015;-71
2023/10/26 06:59:32;;;;;;;18.90;4.68;;;19.90;93.20;;;;;;6244932;23;20096;-69
2023/10/26 07:01:58;;;;;;;24.25;5.07;;;20.00;93.10;;;;;;6244352;23;20008;-70
2023/10/26 07:04:24;;;;;;;12.98;4.75;;;20.10;93.00;;;;;;6217645;23;20015;-71
2023/10/26 07:06:49;;;;;;;19.67;5.30;;;20.20;92.80;;;;;;6244438;23;20533;-70
2023/10/26 07:09:16;;;;;;;17.77;5.10;;;20.30;92.80;;;;;;6216119;23;20373;-70
2023/10/26 07:11:42;;;;;;;14.60;4.88;;;20.50;92.60;;;;;;6243189;23;20023;-69
2023/10/26 07:14:08;;;;;;;14.00;5.10;;;20.60;92.40;;;;;;6243196;23;20016;-71
2023/10/26 07:16:34;;;;;;;15.13;4.38;;;20.60;92.40;;;;;;6244279;23;20008;-70
2023/10/26 07:19:00;;;;;;;17.23;5.28;;;20.50;92.30;;;;;;6244950;23;20003;-69
2023/10/26 07:21:27;;;;;;;24.98;5.40;;;20.60;92.50;;;;;;6244381;23;20008;-70
2023/10/26 07:23:53;;;;;;;13.80;4.88;;;20.60;92.30;;;;;;6243862;23;20019;-69
2023/10/26 07:26:19;;;;;;;18.42;5.93;;;20.70;92.30;;;;;;6244272;23;20007;-70
2023/10/26 07:28:45;;;;;;;16.85;6.15;;;20.70;92.10;;;;;;6244284;23;20008;-69
2023/10/26 07:31:21;;;;;;;18.73;5.07;;;20.80;92.10;;;;;;6243929;23;20079;-69
2023/10/26 07:33:48;;;;;;;22.15;6.50;;;20.90;92.10;;;;;;6244048;23;20010;-70
2023/10/26 07:36:13;;;;;;;30.85;6.78;;;20.90;91.90;;;;;;6243963;23;20061;-70
2023/10/26 07:38:40;;;;;;;25.63;6.18;;;21.00;91.90;;;;;;6243611;23;20004;-69
2023/10/26 07:41:07;;;;;;;17.73;5.90;;;21.10;91.80;;;;;;6243487;23;20015;-70
2023/10/26 07:43:36;;;;;;;26.75;5.72;;;21.10;91.80;;;;;;6242595;23;20020;-71
2023/10/26 07:46:02;;;;;;;20.90;5.82;;;21.10;91.70;;;;;;6243432;23;20330;-70
2023/10/26 07:48:28;;;;;;;18.85;5.10;;;21.20;91.80;;;;;;6243642;23;20014;-70
2023/10/26 07:50:54;;;;;;;18.33;5.00;;;21.20;91.70;;;;;;6243404;23;20008;-70
2023/10/26 07:53:20;;;;;;;15.95;5.75;;;21.30;91.70;;;;;;6244248;23;20030;-69
2023/10/26 07:55:46;;;;;;;21.80;6.20;;;21.20;91.60;;;;;;6243948;23;20452;-69
2023/10/26 07:58:12;;;;;;;23.58;6.95;;;21.30;91.60;;;;;;6246382;23;20012;-69
2023/10/26 08:00:37;;;;;;;22.48;6.18;;;21.30;91.60;;;;;;6246526;23;20394;-70
2023/10/26 08:03:03;;;;;;;20.65;5.97;;;21.30;91.60;;;;;;6246101;23;20382;-70
2023/10/26 08:05:29;;;;;;;17.30;5.50;;;21.30;91.60;;;;;;6246242;23;20022;-68
2023/10/26 08:07:55;;;;;;;19.25;6.00;;;21.30;91.70;;;;;;6246164;23;20050;-69
2023/10/26 08:10:21;;;;;;;19.73;5.93;;;21.30;91.70;;;;;;6245712;23;20008;-71
2023/10/26 08:12:51;;;;;;;20.63;5.65;;;21.40;91.80;;;;;;6219051;23;20453;-70
2023/10/26 08:15:17;;;;;;;25.58;7.22;;;21.40;91.80;;;;;;6245748;23;20032;-69
2023/10/26 08:17:43;;;;;;;20.30;6.03;;;21.40;91.80;;;;;;6246120;23;20436;-71
2023/10/26 08:20:09;;;;;;;18.77;5.95;;;21.40;91.80;;;;;;6245688;23;19996;-69
2023/10/26 08:22:35;;;;;;;19.63;4.93;;;21.50;91.80;;;;;;6245752;23;20456;-70
2023/10/26 08:25:01;;;;;;;18.27;5.03;;;21.50;91.70;;;;;;6245927;23;20000;-73
2023/10/26 08:27:27;;;;;;;15.35;4.00;;;21.50;91.60;;;;;;6218812;23;20007;-72
2023/10/26 08:29:52;;;;;;;16.95;3.45;;;21.60;91.60;;;;;;6245954;23;20000;-72
2023/10/26 08:32:19;;;;;;;14.25;3.67;;;21.60;91.50;;;;;;6245700;23;20418;-71
2023/10/26 08:34:46;;;;;;;15.45;3.83;;;21.60;91.40;;;;;;6245742;23;20004;-69
2023/10/26 08:37:12;;;;;;;20.48;4.03;;;21.70;91.30;;;;;;6245954;23;20426;-71
2023/10/26 08:39:38;;;;;;;13.20;3.33;;;21.70;91.20;;;;;;6219505;23;20030;-71
2023/10/26 08:42:05;;;;;;;17.95;2.90;;;21.70;91.10;;;;;;6246050;23;20000;-72
2023/10/26 08:44:32;;;;;;;17.95;3.25;;;21.80;90.80;;;;;;6246361;23;20058;-69
2023/10/26 08:47:01;;;;;;;15.60;3.58;;;21.80;90.50;;;;;;6246143;23;20282;-71
2023/10/26 08:49:28;;;;;;;8.57;2.47;;;21.90;90.40;;;;;;6245753;23;20032;-71
2023/10/26 08:51:54;;;;;;;14.65;2.63;;;21.90;90.20;;;;;;6219402;23;20034;-71
2023/10/26 08:54:20;;;;;;;10.80;2.70;;;22.00;89.80;;;;;;6246198;23;20083;-70
2023/10/26 08:56:46;;;;;;;14.98;2.53;;;22.00;89.30;;;;;;6219045;23;20058;-71
2023/10/26 08:59:12;;;;;;;93.38;9.15;;;22.00;88.70;;;;;;6246060;23;20419;-71
2023/10/26 09:01:37;;;;;;;101.00;9.32;;;22.00;88.40;;;;;;6245668;23;20311;-74
2023/10/26 09:04:11;;;;;;;39.35;6.00;;;22.10;88.20;;;;;;6246025;23;20008;-75
2023/10/26 09:06:51;;;;;;;27.50;3.95;;;22.30;88.00;;;;;;6246101;23;20011;-78
2023/10/26 09:09:17;;;;;;;18.30;3.08;;;22.40;88.00;;;;;;6246332;23;19996;-76
2023/10/26 09:11:46;;;;;;;14.73;3.13;;;22.50;87.40;;;;;;6245484;23;20023;-74
2023/10/26 09:14:22;;;;;;;15.32;3.10;;;22.60;86.80;;;;;;6245728;23;20438;-78
2023/10/26 09:16:49;;;;;;;16.15;3.08;;;22.60;86.50;;;;;;6220250;23;20095;-76
2023/10/26 09:19:16;;;;;;;18.88;4.43;;;22.70;86.50;;;;;;6245688;23;20000;-81
2023/10/26 09:21:58;;;;;;;14.85;3.38;;;22.60;86.10;;;;;;6246255;23;20030;-84
2023/10/26 09:24:28;;;;;;;23.60;4.07;;;22.60;86.60;;;;;;6246162;23;20019;-74
2023/10/26 09:26:56;;;;;;;15.88;8.25;;;22.60;86.50;;;;;;6245527;23;20330;-73
2023/10/26 09:29:41;;;;;;;17.10;4.30;;;22.50;86.40;;;;;;6246666;23;20087;-82
2023/10/26 09:32:07;;;;;;;12.13;3.33;;;22.30;86.60;;;;;;6219330;23;20158;-72
2023/10/26 09:34:45;;;;;;;71.93;8.25;;;22.30;86.50;;;;;;6219045;23;20035;-74
2023/10/26 09:37:11;;;;;;;22.48;4.38;;;22.40;87.00;;;;;;6218443;23;20035;-83
2023/10/26 09:39:41;;;;;;;12.48;2.67;;;22.40;87.20;;;;;;6245981;23;20086;-74
2023/10/26 09:42:09;;;;;;;15.95;2.83;;;22.50;86.70;;;;;;6245699;23;20004;-72
2023/10/26 09:44:36;;;;;;;14.50;3.20;;;22.50;86.20;;;;;;6245706;23;20008;-72
2023/10/26 09:47:02;;;;;;;14.13;3.67;;;22.60;86.10;;;;;;6245813;23;20010;-73
2023/10/26 09:49:28;;;;;;;16.52;2.88;;;22.70;85.80;;;;;;6245604;23;20012;-79
2023/10/26 09:51:54;;;;;;;14.35;2.75;;;22.80;85.50;;;;;;6246364;23;20008;-77
2023/10/26 09:54:40;;;;;;;13.80;2.92;;;23.00;84.80;;;;;;6246078;23;20027;-78
2023/10/26 09:57:25;;;;;;;11.05;2.72;;;23.00;84.30;;;;;;6246087;23;20315;-79
2023/10/26 09:59:54;;;;;;;15.88;2.80;;;23.10;84.20;;;;;;6245875;23;20010;-78
2023/10/26 10:02:20;;;;;;;14.63;2.72;;;23.20;82.90;;;;;;6245206;23;20450;-78
2023/10/26 10:04:47;;;;;;;11.15;2.60;;;23.40;82.50;;;;;;6218325;23;20083;-79
2023/10/26 10:07:43;;;;;;;11.85;2.90;;;23.50;81.70;;;;;;6245383;23;20086;-77
2023/10/26 10:10:14;;;;;;;17.65;3.13;;;23.70;82.10;;;;;;6245777;23;20000;-77
2023/10/26 10:12:42;;;;;;;12.57;2.45;;;23.80;80.70;;;;;;6245411;23;20434;-76
2023/10/26 10:15:13;;;;;;;10.43;3.65;;;23.90;79.40;;;;;;6217676;23;20407;-79
2023/10/26 10:17:44;;;;;;;11.68;2.92;;;24.00;78.50;;;;;;6245689;23;20007;-76
2023/10/26 10:20:19;;;;;;;11.05;2.53;;;24.00;78.30;;;;;;6245587;23;20537;-78
2023/10/26 10:22:45;;;;;;;14.32;2.88;;;23.90;77.90;;;;;;6245520;23;20418;-77
2023/10/26 10:25:12;;;;;;;10.68;2.65;;;23.90;78.10;;;;;;6245489;23;20046;-77
2023/10/26 10:27:58;;;;;;;15.15;2.50;;;23.90;78.00;;;;;;6246018;23;20014;-78
2023/10/26 10:30:29;;;;;;;16.15;3.42;;;23.90;78.00;;;;;;6224038;23;20004;-79
2023/10/26 10:32:56;;;;;;;24.25;3.72;;;23.90;77.70;;;;;;6245328;23;20035;-78
2023/10/26 10:35:27;;;;;;;17.27;4.03;;;23.90;77.80;;;;;;6224198;23;20072;-84
2023/10/26 10:38:12;;;;;;;11.73;2.83;;;24.00;77.80;;;;;;6245439;23;20012;-74
2023/10/26 10:40:53;;;;;;;7.95;2.08;;;24.10;77.80;;;;;;6245641;23;20031;-78
2023/10/26 10:43:35;;;;;;;9.65;2.72;;;24.10;78.50;;;;;;6245396;23;20446;-79
2023/10/26 10:46:26;;;;;;;8.13;1.92;;;24.00;78.60;;;;;;6245264;23;20019;-78
2023/10/26 10:49:04;;;;;;;10.15;2.42;;;23.90;78.70;;;;;;6218278;23;20011;-77
2023/10/26 10:51:31;;;;;;;11.20;2.50;;;24.00;78.00;;;;;;6245776;23;20032;-78
2023/10/26 10:53:57;;;;;;;9.13;2.33;;;24.10;77.60;;;;;;6244970;23;20008;-78
2023/10/26 10:56:23;;;;;;;9.25;1.98;;;24.40;77.50;;;;;;6245506;23;20515;-79
2023/10/26 10:58:52;;;;;;;9.88;1.90;;;24.40;77.10;;;;;;6246188;23;20014;-78
2023/10/26 11:01:21;;;;;;;11.15;2.30;;;24.30;77.00;;;;;;6245446;23;20032;-79
2023/10/26 11:03:48;;;;;;;9.48;2.00;;;24.30;76.60;;;;;;6245278;23;20012;-79
2023/10/26 11:06:15;;;;;;;13.73;2.75;;;24.20;76.30;;;;;;6244918;23;20008;-78
2023/10/26 11:08:41;;;;;;;8.80;2.28;;;24.20;76.40;;;;;;6245031;23;20000;-76
2023/10/26 11:11:07;;;;;;;9.48;1.85;;;24.30;76.10;;;;;;6245118;23;20022;-79
2023/10/26 11:13:32;;;;;;;12.48;2.63;;;24.40;75.80;;;;;;6244869;23;20442;-73
2023/10/26 11:15:58;;;;;;;9.80;2.40;;;24.50;75.50;;;;;;6245065;23;19996;-76
2023/10/26 11:18:24;;;;;;;11.15;2.28;;;24.50;75.30;;;;;;6245013;23;20000;-80
2023/10/26 11:20:50;;;;;;;11.45;2.55;;;24.40;75.40;;;;;;6244809;23;20008;-77
2023/10/26 11:23:21;;;;;;;14.25;3.38;;;24.40;75.70;;;;;;6244270;23;20012;-83
2023/10/26 11:25:46;;;;;;;13.23;2.80;;;24.30;75.70;;;;;;6244631;23;20006;-82
2023/10/26 11:28:12;;;;;;;10.20;2.67;;;24.20;75.90;;;;;;6245480;23;20068;-83
2023/10/26 11:30:53;;;;;;;8.43;2.83;;;24.20;75.80;;;;;;6244499;23;20007;-81
2023/10/26 11:33:42;;;;;;;13.82;2.67;;;24.10;76.40;;;;;;6245004;23;20477;-82
2023/10/26 11:36:12;;;;;;;8.20;1.90;;;24.00;77.50;;;;;;6245027;23;20003;-81
2023/10/26 11:38:51;;;;;;;10.00;2.67;;;24.20;77.70;;;;;;6217599;23;20096;-81
2023/10/26 11:41:24;;;;;;;12.30;2.95;;;24.30;77.70;;;;;;6245410;23;20011;-81
2023/10/26 11:43:50;;;;;;;11.50;2.67;;;24.30;78.20;;;;;;6245439;23;20035;-82
2023/10/26 11:46:26;;;;;;;13.10;2.78;;;24.30;78.50;;;;;;6245307;23;20023;-81
2023/10/26 11:48:52;;;;;;;9.68;2.42;;;24.30;78.20;;;;;;6245908;23;20024;-84
2023/10/26 11:51:19;;;;;;;11.32;2.70;;;24.20;78.40;;;;;;6245352;23;20001;-85
2023/10/26 11:53:44;;;;;;;15.13;2.58;;;24.10;78.80;;;;;;6245663;23;20000;-85
2023/10/26 11:56:10;;;;;;;10.25;2.78;;;24.00;79.60;;;;;;6246740;23;20000;-85
2023/10/26 11:58:36;;;;;;;18.23;3.92;;;24.00;79.20;;;;;;6244839;23;20358;-82
2023/10/26 12:01:03;;;;;;;12.77;3.70;;;23.90;79.60;;;;;;6244684;23;20493;-84
2023/10/26 12:03:29;;;;;;;12.75;3.00;;;23.80;80.00;;;;;;6217740;23;20023;-81
2023/10/26 12:05:55;;;;;;;15.30;2.97;;;23.80;80.30;;;;;;6244990;23;20023;-80
2023/10/26 12:08:20;;;;;;;13.00;3.20;;;23.90;80.40;;;;;;6244354;23;20008;-78
2023/10/26 12:10:46;;;;;;;15.02;3.20;;;24.00;80.60;;;;;;6217962;23;20098;-82
2023/10/26 12:13:12;;;;;;;18.23;3.30;;;24.20;80.70;;;;;;6244261;23;20027;-77
2023/10/26 12:15:38;;;;;;;12.07;2.78;;;24.30;80.40;;;;;;6244469;23;20000;-79
2023/10/26 12:18:03;;;;;;;11.90;2.50;;;24.40;80.00;;;;;;6221348;23;20008;-77
2023/10/26 12:20:29;;;;;;;12.02;3.08;;;24.50;79.90;;;;;;6233983;23;20007;-77
2023/10/26 12:22:55;;;;;;;14.00;3.28;;;24.70;79.80;;;;;;6243852;23;20086;-77
2023/10/26 12:25:21;;;;;;;14.05;3.17;;;24.70;79.50;;;;;;6217111;23;20054;-77
2023/10/26 12:27:47;;;;;;;13.75;3.00;;;24.80;79.20;;;;;;6243891;23;20034;-79
2023/10/26 12:30:12;;;;;;;10.52;3.05;;;24.70;79.00;;;;;;6244110;23;20004;-77
2023/10/26 12:32:38;;;;;;;11.65;2.67;;;24.80;79.20;;;;;;6242825;23;20000;-78
2023/10/26 12:35:04;;;;;;;17.15;4.80;;;24.80;79.10;;;;;;6241950;23;20012;-77
2023/10/26 12:37:30;;;;;;;16.92;6.47;;;24.80;79.00;;;;;;6243861;23;20024;-78